KBDE/BDE METAR and TAF weather

Enter ICAO airport designator
Station Type Date Time Source
KBDE METAR 2021/08/04 18:53 UTC NOAA

KBDE 041853Z AUTO 21017G29KT 9SM CLR 28/14 A2994 RMK AO2 PK WND 21029/1853 SLP136 T02780144 $


Station Type Date Time Source
KBDE Decoded METAR 2021/08/04 18:53 UTC NOAA

BAUDETTE INTERNATIONAL AIRPORT, MN, United States (KBDE) 48-44N 94-37W 329M
Aug 04, 2021 - 02:53 PM EDT / 2021.08.04 1853 UTC
Wind: from the SSW (210 degrees) at 20 MPH (17 KT) gusting to 33 MPH (29 KT):0
Visibility: 9 mile(s):0
Sky conditions: clear
Temperature: 82.0 F (27.8 C)
Dew Point: 57.9 F (14.4 C)
Relative Humidity: 43%
Pressure (altimeter): 29.94 in. Hg (1013 hPa)
ob: KBDE 041853Z AUTO 21017G29KT 9SM CLR 28/14 A2994 RMK AO2 PK WND 21029/1853 SLP136 T02780144
cycle: 19

Station Type Date Time Source
KBDE TAF UTC NOAA

Error!

Example: see airport list